Time;durP1;ratioP1;P1;durP2;ratioP2;P2;SDS_P1;SDS_P2;PMS_P1;PMS_P2;Temp;Humidity;BMP_temperature;BMP_pressure;BME280_temperature;BME280_humidity;BME280_pressure;Samples;Min_cycle;Max_cycle;Signal;HPM_P1;HPM_P2
2022/12/23 00:04:40;;;;;;;;;;;;;;;18.37;37.58;94865.75;10399570;28;1991;-45
2022/12/23 00:09:40;;;;;;;;;;;;;;;18.36;37.55;94864.19;10398658;28;2205;-47
2022/12/23 00:19:59;;;;;;;;;;;;;;;18.36;37.52;94832.69;10391526;28;2050;-46
2022/12/23 00:25:00;;;;;;;;;;;;;;;18.37;37.51;94830.88;10396415;28;1973;-45
2022/12/23 00:30:00;;;;;;;;;;;;;;;18.32;37.49;94823.84;10393518;28;5161;-45
2022/12/23 00:35:00;;;;;;;;;;;;;;;18.34;37.50;94824.34;10397428;28;1990;-45
2022/12/23 00:45:19;;;;;;;;;;;;;;;18.25;37.67;94770.94;10397904;28;2041;-47
2022/12/23 00:50:20;;;;;;;;;;;;;;;18.29;37.57;94774.56;10390975;28;2179;-46
2022/12/23 00:55:20;;;;;;;;;;;;;;;18.30;37.58;94770.09;10400653;28;1958;-45
2022/12/23 01:05:35;;;;;;;;;;;;;;;18.27;37.66;94766.19;10397682;28;2069;-48
2022/12/23 01:05:41;;;;;;;;;;;;;;;18.31;37.47;94761.16;10391211;28;1964;-49
2022/12/23 01:10:41;;;;;;;;;;;;;;;18.26;37.50;94758.63;10392660;28;2054;-50
2022/12/23 01:15:42;;;;;;;;;;;;;;;18.23;37.55;94748.69;10401565;28;1898;-45
2022/12/23 01:20:42;;;;;;;;;;;;;;;18.24;37.55;94718.75;10398375;28;1951;-45
2022/12/23 01:25:43;;;;;;;;;;;;;;;18.23;37.50;94743.44;10399355;28;2072;-44
2022/12/23 01:30:43;;;;;;;;;;;;;;;18.28;37.36;94748.63;10386786;28;4866;-46
2022/12/23 01:35:43;;;;;;;;;;;;;;;18.22;37.38;94753.13;10393223;28;1965;-45
2022/12/23 01:40:44;;;;;;;;;;;;;;;18.19;37.47;94748.47;10397562;28;2061;-45
2022/12/23 01:45:44;;;;;;;;;;;;;;;18.20;37.63;94747.38;10399989;28;1977;-45
2022/12/23 01:50:47;;;;;;;;;;;;;;;18.24;37.28;94751.00;10406880;28;2080;-46
2022/12/23 01:55:55;;;;;;;;;;;;;;;18.18;37.47;94759.22;10410425;28;1580;-45
2022/12/23 02:11:55;;;;;;;;;;;;;;;18.16;37.47;94737.75;10417199;28;1894;-48
2022/12/23 02:17:02;;;;;;;;;;;;;;;18.13;37.42;94739.09;10404202;28;1946;-45
2022/12/23 02:22:21;;;;;;;;;;;;;;;18.14;37.53;94753.75;10416293;28;2050;-49
2022/12/23 02:27:22;;;;;;;;;;;;;;;18.13;37.58;94744.34;10403348;28;4915;-47
2022/12/23 02:32:26;;;;;;;;;;;;;;;18.15;37.35;94752.72;10405045;28;1838;-47
2022/12/23 02:37:34;;;;;;;;;;;;;;;18.13;37.32;94759.31;10397614;28;2077;-45
2022/12/23 02:42:35;;;;;;;;;;;;;;;18.13;37.35;94764.53;10405708;28;1799;-46
2022/12/23 02:47:40;;;;;;;;;;;;;;;18.13;37.25;94761.91;10395340;28;1983;-45
2022/12/23 02:52:40;;;;;;;;;;;;;;;18.11;37.29;94764.84;10394993;28;2051;-45
2022/12/23 02:57:42;;;;;;;;;;;;;;;18.08;37.27;94770.63;10410650;28;2011;-45
2022/12/23 03:02:43;;;;;;;;;;;;;;;18.13;37.37;94772.41;10398441;28;1981;-46
2022/12/23 03:07:43;;;;;;;;;;;;;;;18.12;37.24;94768.22;10402366;28;1983;-45
2022/12/23 03:12:58;;;;;;;;;;;;;;;18.08;37.33;94764.59;10402466;28;1890;-48
2022/12/23 03:18:03;;;;;;;;;;;;;;;18.04;37.34;94768.84;10411167;28;2148;-46
2022/12/23 03:23:17;;;;;;;;;;;;;;;18.06;37.38;94777.19;10414320;28;2067;-47
2022/12/23 03:28:20;;;;;;;;;;;;;;;18.04;37.29;94761.75;10391647;28;4903;-46
2022/12/23 03:33:25;;;;;;;;;;;;;;;18.05;37.39;94763.34;10397161;28;2057;-45
2022/12/23 03:38:25;;;;;;;;;;;;;;;18.06;37.23;94764.09;10393772;28;1969;-46
2022/12/23 03:43:27;;;;;;;;;;;;;;;17.99;37.35;94763.66;10402289;28;1925;-47
2022/12/23 03:48:35;;;;;;;;;;;;;;;18.05;37.31;94773.03;10393868;28;2042;-49
2022/12/23 03:53:40;;;;;;;;;;;;;;;18.03;37.27;94775.16;10399064;28;2061;-47
2022/12/23 03:58:47;;;;;;;;;;;;;;;17.95;37.42;94796.75;10403592;28;1867;-47
2022/12/23 04:03:53;;;;;;;;;;;;;;;18.01;37.27;94785.16;10388536;28;1985;-46
2022/12/23 04:08:53;;;;;;;;;;;;;;;17.97;37.24;94792.00;10400093;28;1927;-48
2022/12/23 04:13:53;;;;;;;;;;;;;;;18.02;37.20;94794.56;10394570;28;1981;-49
2022/12/23 04:18:54;;;;;;;;;;;;;;;18.00;37.28;94797.47;10396567;28;2050;-47
2022/12/23 04:23:54;;;;;;;;;;;;;;;17.96;37.40;94803.53;10411949;28;1966;-46
2022/12/23 04:28:56;;;;;;;;;;;;;;;18.00;37.27;94812.41;10398629;28;5040;-47
2022/12/23 04:33:56;;;;;;;;;;;;;;;17.97;37.32;94815.59;10402151;28;1961;-45
2022/12/23 04:38:56;;;;;;;;;;;;;;;17.97;37.28;94813.00;10395776;28;2034;-46
2022/12/23 04:43:57;;;;;;;;;;;;;;;17.95;37.30;94825.59;10400729;28;1950;-47
2022/12/23 04:48:57;;;;;;;;;;;;;;;17.94;37.30;94824.03;10393248;28;2132;-45
2022/12/23 04:53:58;;;;;;;;;;;;;;;17.97;37.28;94832.09;10398741;28;1942;-49
2022/12/23 04:59:01;;;;;;;;;;;;;;;17.92;37.42;94834.78;10395762;28;1952;-45
2022/12/23 05:04:01;;;;;;;;;;;;;;;17.94;37.27;94837.13;10391781;28;2097;-47
2022/12/23 05:09:01;;;;;;;;;;;;;;;17.90;37.65;94821.19;10394493;28;1892;-50
2022/12/23 05:14:02;;;;;;;;;;;;;;;17.92;37.40;94829.56;10396984;28;2157;-46
2022/12/23 05:19:02;;;;;;;;;;;;;;;17.91;37.36;94840.31;10386610;28;2034;-47
2022/12/23 05:24:02;;;;;;;;;;;;;;;17.89;37.29;94841.38;10394563;28;2101;-46
2022/12/23 05:29:03;;;;;;;;;;;;;;;17.85;37.49;94836.94;10403216;28;4935;-46
2022/12/23 05:34:03;;;;;;;;;;;;;;;17.89;37.43;94845.81;10400615;28;1995;-49
2022/12/23 05:39:03;;;;;;;;;;;;;;;17.84;37.55;94845.88;10403209;28;1910;-47
2022/12/23 05:44:03;;;;;;;;;;;;;;;17.80;37.56;94837.03;10400790;28;1969;-45
2022/12/23 05:49:04;;;;;;;;;;;;;;;17.87;37.49;94846.09;10399134;28;1922;-45
2022/12/23 05:54:04;;;;;;;;;;;;;;;17.85;37.39;94853.47;10404453;28;1905;-47
2022/12/23 05:59:04;;;;;;;;;;;;;;;17.83;37.37;94860.03;10401950;28;1969;-46
2022/12/23 06:04:04;;;;;;;;;;;;;;;17.83;37.39;94855.59;10387759;28;2019;-45
2022/12/23 06:09:05;;;;;;;;;;;;;;;17.84;37.33;94854.53;10407937;28;2222;-46
2022/12/23 06:14:06;;;;;;;;;;;;;;;17.83;37.51;94870.53;10402125;28;1918;-45
2022/12/23 06:19:06;;;;;;;;;;;;;;;17.82;37.49;94876.84;10401880;28;2152;-46
2022/12/23 06:24:06;;;;;;;;;;;;;;;17.76;37.67;94875.34;10400805;28;2022;-47
2022/12/23 06:29:07;;;;;;;;;;;;;;;17.83;37.45;94881.00;10401461;28;4934;-48
2022/12/23 06:34:07;;;;;;;;;;;;;;;17.75;37.73;94892.09;10391385;28;1939;-45
2022/12/23 06:39:08;;;;;;;;;;;;;;;17.77;37.55;94903.88;10396136;28;1957;-46
2022/12/23 06:44:09;;;;;;;;;;;;;;;17.76;37.61;94918.03;10400297;28;1965;-47
2022/12/23 06:49:09;;;;;;;;;;;;;;;17.80;37.51;94929.53;10400968;28;1957;-50
2022/12/23 06:54:10;;;;;;;;;;;;;;;17.80;37.48;94916.41;10400451;28;1934;-45
2022/12/23 06:59:10;;;;;;;;;;;;;;;17.78;37.62;94931.66;10405314;28;1946;-48
2022/12/23 07:04:11;;;;;;;;;;;;;;;17.86;37.39;94948.63;10403855;28;2034;-46
2022/12/23 07:09:11;;;;;;;;;;;;;;;17.77;37.57;94950.28;10405791;28;1961;-44
2022/12/23 07:14:12;;;;;;;;;;;;;;;17.74;37.75;94956.06;10397772;28;2149;-47
2022/12/23 07:19:12;;;;;;;;;;;;;;;17.77;37.55;94956.31;10398872;28;2026;-48
2022/12/23 07:24:12;;;;;;;;;;;;;;;17.73;37.60;94959.75;10395349;28;2097;-46
2022/12/23 07:29:12;;;;;;;;;;;;;;;17.78;37.61;94970.97;10400828;28;5041;-46
2022/12/23 07:34:14;;;;;;;;;;;;;;;17.70;37.74;94971.56;10403417;28;1944;-45
2022/12/23 07:39:14;;;;;;;;;;;;;;;17.75;37.65;94974.16;10398786;28;1933;-48
2022/12/23 07:44:14;;;;;;;;;;;;;;;17.70;37.74;94976.78;10394031;28;1997;-45
2022/12/23 07:49:15;;;;;;;;;;;;;;;17.77;37.61;94977.28;10391505;28;1965;-44
2022/12/23 07:54:15;;;;;;;;;;;;;;;17.72;37.68;94974.69;10398075;28;1949;-46
2022/12/23 07:59:16;;;;;;;;;;;;;;;17.73;37.67;94986.75;10415097;28;2029;-47
2022/12/23 08:04:16;;;;;;;;;;;;;;;17.72;37.72;94982.53;10402184;28;2055;-44
2022/12/23 08:09:16;;;;;;;;;;;;;;;17.71;37.68;94983.63;10399378;28;2121;-45
2022/12/23 08:14:16;;;;;;;;;;;;;;;17.69;37.80;94990.97;10402971;28;2102;-48
2022/12/23 08:19:17;;;;;;;;;;;;;;;17.73;37.60;94999.06;10397687;28;1996;-48
2022/12/23 08:24:17;;;;;;;;;;;;;;;17.73;37.68;94991.19;10400541;28;1977;-47
2022/12/23 08:29:17;;;;;;;;;;;;;;;17.68;37.79;94989.38;10395674;28;4891;-45
2022/12/23 08:34:18;;;;;;;;;;;;;;;17.68;37.76;94992.00;10397025;28;2030;-45
2022/12/23 08:39:19;;;;;;;;;;;;;;;17.67;37.82;94987.84;10394173;28;2001;-46
2022/12/23 08:44:31;;;;;;;;;;;;;;;17.68;37.76;94984.16;10398415;28;1925;-45
2022/12/23 08:49:31;;;;;;;;;;;;;;;17.68;37.81;94994.63;10394052;28;2037;-48
2022/12/23 08:54:34;;;;;;;;;;;;;;;17.67;37.82;94987.84;10399155;28;1906;-48
2022/12/23 08:59:35;;;;;;;;;;;;;;;17.70;37.83;95005.63;10408901;28;2068;-43
2022/12/23 09:04:38;;;;;;;;;;;;;;;17.63;37.99;95033.19;10406179;28;2250;-45
2022/12/23 09:09:39;;;;;;;;;;;;;;;17.66;37.84;95046.53;10401708;28;2015;-48
2022/12/23 09:14:46;;;;;;;;;;;;;;;17.64;38.02;95053.13;10400271;28;2109;-45
2022/12/23 09:19:47;;;;;;;;;;;;;;;17.64;37.98;95051.28;10417111;28;2072;-45
2022/12/23 09:24:47;;;;;;;;;;;;;;;17.62;38.10;95036.91;10406563;28;1942;-47
2022/12/23 09:29:47;;;;;;;;;;;;;;;17.64;38.08;95032.16;10400601;28;5054;-45
2022/12/23 09:34:57;;;;;;;;;;;;;;;17.68;37.85;95025.31;10400238;28;1954;-49
2022/12/23 09:39:58;;;;;;;;;;;;;;;17.70;37.91;95021.34;10400543;28;1969;-47
2022/12/23 09:45:01;;;;;;;;;;;;;;;17.69;38.04;95027.66;10413323;28;1951;-45
2022/12/23 09:50:02;;;;;;;;;;;;;;;17.65;38.18;95021.41;10404902;28;1954;-45
2022/12/23 09:55:02;;;;;;;;;;;;;;;17.66;38.06;95017.72;10408842;28;2196;-49
2022/12/23 10:00:13;;;;;;;;;;;;;;;17.63;38.22;94996.50;10408881;28;2013;-45
2022/12/23 10:05:13;;;;;;;;;;;;;;;17.63;38.18;95001.75;10415905;28;2054;-48
2022/12/23 10:10:19;;;;;;;;;;;;;;;17.64;38.13;94998.09;10396180;28;1962;-45
2022/12/23 10:15:27;;;;;;;;;;;;;;;17.63;38.29;95004.38;10398537;28;1957;-46
2022/12/23 10:20:33;;;;;;;;;;;;;;;17.59;38.47;94998.91;10397160;28;1926;-45
2022/12/23 10:25:34;;;;;;;;;;;;;;;17.59;38.25;94995.50;10391499;28;1930;-45
2022/12/23 10:30:36;;;;;;;;;;;;;;;17.56;38.49;94991.56;10404296;28;5113;-47
2022/12/23 10:35:41;;;;;;;;;;;;;;;17.58;38.39;94983.44;10410592;28;1983;-46
2022/12/23 10:40:56;;;;;;;;;;;;;;;17.55;38.54;94995.25;10403574;28;2062;-46
2022/12/23 10:45:57;;;;;;;;;;;;;;;17.58;38.35;94989.47;10400042;28;2061;-46
2022/12/23 10:51:02;;;;;;;;;;;;;;;17.58;38.33;94978.97;10402663;28;2255;-47
2022/12/23 10:56:02;;;;;;;;;;;;;;;17.60;38.24;94982.09;10416456;28;1890;-45
2022/12/23 11:01:03;;;;;;;;;;;;;;;17.57;38.43;94977.44;10396280;28;2129;-45
2022/12/23 11:06:05;;;;;;;;;;;;;;;17.58;38.40;94980.81;10396080;28;2017;-47
2022/12/23 11:11:05;;;;;;;;;;;;;;;17.60;38.40;94979.50;10411951;28;1928;-47
2022/12/23 11:16:12;;;;;;;;;;;;;;;17.61;38.25;94982.91;10394283;28;1966;-48
2022/12/23 11:21:12;;;;;;;;;;;;;;;17.56;38.44;94980.31;10396990;28;1967;-49
2022/12/23 11:26:16;;;;;;;;;;;;;;;17.56;38.45;94972.44;10413257;28;1980;-45
2022/12/23 11:31:23;;;;;;;;;;;;;;;17.57;38.39;94972.19;10398349;28;2109;-46
2022/12/23 11:36:24;;;;;;;;;;;;;;;17.59;38.33;94959.59;10394049;28;1950;-45
2022/12/23 11:41:25;;;;;;;;;;;;;;;17.63;38.29;94952.75;10395559;28;2082;-45
2022/12/23 11:46:27;;;;;;;;;;;;;;;17.50;38.39;94948.13;10391556;28;2398;-45
2022/12/23 11:51:27;;;;;;;;;;;;;;;17.57;38.33;94940.75;10399389;28;1976;-47
2022/12/23 11:56:35;;;;;;;;;;;;;;;17.55;38.50;94937.63;10399272;28;2108;-45
2022/12/23 12:01:38;;;;;;;;;;;;;;;17.55;38.51;94937.63;10394998;28;2016;-45
2022/12/23 12:06:42;;;;;;;;;;;;;;;17.56;38.41;94933.13;10398187;28;2000;-45
2022/12/23 12:11:46;;;;;;;;;;;;;;;17.53;38.40;94934.47;10397347;28;1930;-45
2022/12/23 12:16:47;;;;;;;;;;;;;;;17.54;38.42;94935.25;10398894;28;1914;-47
2022/12/23 12:21:50;;;;;;;;;;;;;;;17.56;38.47;94912.97;10396479;28;2110;-48
2022/12/23 12:26:51;;;;;;;;;;;;;;;17.52;38.40;94898.84;10397555;28;4890;-46
2022/12/23 12:31:52;;;;;;;;;;;;;;;17.49;38.54;94902.03;10401516;28;1970;-46
2022/12/23 12:37:00;;;;;;;;;;;;;;;17.50;38.60;94892.31;10402574;28;2105;-46
2022/12/23 12:42:09;;;;;;;;;;;;;;;17.50;38.59;94880.00;10415464;28;2089;-45
2022/12/23 12:47:13;;;;;;;;;;;;;;;17.50;38.51;94887.06;10398278;28;2042;-46
2022/12/23 12:52:20;;;;;;;;;;;;;;;17.55;38.49;94876.56;10392074;28;1941;-45
2022/12/23 12:57:20;;;;;;;;;;;;;;;17.51;38.48;94878.94;10402486;28;1938;-45
2022/12/23 13:02:36;;;;;;;;;;;;;;;17.49;38.48;94880.25;10400040;28;2006;-45
2022/12/23 13:07:54;;;;;;;;;;;;;;;17.50;38.55;94876.59;10406326;28;2034;-48
2022/12/23 13:12:57;;;;;;;;;;;;;;;17.49;38.67;94878.44;10403815;28;1958;-45
2022/12/23 13:18:03;;;;;;;;;;;;;;;17.48;38.53;94870.81;10392347;28;2117;-45
2022/12/23 13:23:06;;;;;;;;;;;;;;;17.49;38.61;94870.59;10398554;28;1969;-47
2022/12/23 13:28:12;;;;;;;;;;;;;;;17.46;38.60;94860.59;10413526;28;5069;-46
2022/12/23 13:33:21;;;;;;;;;;;;;;;17.44;38.67;94852.25;10393399;28;2097;-45
2022/12/23 13:38:40;;;;;;;;;;;;;;;17.50;38.56;94847.75;10399803;28;2018;-45
2022/12/23 13:43:49;;;;;;;;;;;;;;;17.44;38.63;94847.00;10404470;28;2035;-46
2022/12/23 13:48:56;;;;;;;;;;;;;;;17.42;38.71;94856.97;10420271;28;2025;-46
2022/12/23 13:53:58;;;;;;;;;;;;;;;17.48;38.53;94847.22;10416540;28;1524;-46
2022/12/23 13:58:59;;;;;;;;;;;;;;;17.46;38.69;94855.38;10409688;28;1452;-46
2022/12/23 14:04:19;;;;;;;;;;;;;;;17.46;38.68;94842.28;10412876;28;1733;-47
2022/12/23 14:09:19;;;;;;;;;;;;;;;17.42;38.74;94846.50;10407275;28;1871;-45
2022/12/23 14:14:23;;;;;;;;;;;;;;;17.47;38.58;94838.59;10399929;28;2097;-45
2022/12/23 14:19:36;;;;;;;;;;;;;;;17.40;38.75;94835.50;10408792;28;1971;-45
2022/12/23 14:24:43;;;;;;;;;;;;;;;17.45;38.72;94825.00;10397699;28;2055;-45
2022/12/23 14:29:57;;;;;;;;;;;;;;;17.43;38.57;94832.34;10397502;28;5081;-47
2022/12/23 14:35:18;;;;;;;;;;;;;;;17.45;38.73;94829.44;10401548;28;2020;-45
2022/12/23 14:40:36;;;;;;;;;;;;;;;17.39;38.74;94833.97;10402299;28;1956;-45
2022/12/23 14:45:42;;;;;;;;;;;;;;;17.45;38.72;94814.53;10388605;28;1969;-45
2022/12/23 14:50:48;;;;;;;;;;;;;;;17.42;38.73;94812.44;10394089;28;1909;-45
2022/12/23 14:55:49;;;;;;;;;;;;;;;17.42;38.67;94806.41;10407238;28;1946;-46
2022/12/23 15:00:50;;;;;;;;;;;;;;;17.38;38.83;94800.16;10389085;28;1931;-45
2022/12/23 15:05:50;;;;;;;;;;;;;;;17.35;38.88;94800.72;10399498;28;1906;-46
2022/12/23 15:10:50;;;;;;;;;;;;;;;17.41;38.79;94805.66;10395616;28;2034;-46
2022/12/23 15:15:51;;;;;;;;;;;;;;;17.37;38.79;94799.38;10398770;28;1918;-45
2022/12/23 15:20:58;;;;;;;;;;;;;;;17.42;38.76;94803.78;10392657;28;1962;-45
2022/12/23 15:25:58;;;;;;;;;;;;;;;17.41;38.79;94802.25;10407671;28;1981;-45
2022/12/23 15:30:59;;;;;;;;;;;;;;;17.38;38.75;94802.78;10399657;28;4879;-49
2022/12/23 15:35:59;;;;;;;;;;;;;;;17.37;38.75;94804.63;10393351;28;2020;-48
2022/12/23 15:41:03;;;;;;;;;;;;;;;17.37;38.81;94799.38;10396515;28;1938;-46
2022/12/23 15:46:07;;;;;;;;;;;;;;;17.43;38.76;94810.59;10391271;28;2030;-46
2022/12/23 15:51:10;;;;;;;;;;;;;;;17.40;38.74;94803.28;10399296;28;1926;-47
2022/12/23 15:56:17;;;;;;;;;;;;;;;17.39;38.77;94801.75;10414076;28;1996;-45
2022/12/23 16:01:18;;;;;;;;;;;;;;;17.40;38.73;94798.84;10413417;28;1959;-46
2022/12/23 16:06:20;;;;;;;;;;;;;;;17.41;38.72;94799.63;10397592;28;1988;-48
2022/12/23 16:11:21;;;;;;;;;;;;;;;17.29;38.90;94797.34;10402184;28;2006;-49
2022/12/23 16:16:32;;;;;;;;;;;;;;;17.37;38.78;94788.13;10415280;28;2195;-48
2022/12/23 16:21:33;;;;;;;;;;;;;;;17.34;38.90;94784.22;10395083;28;1970;-46
2022/12/23 16:26:40;;;;;;;;;;;;;;;17.36;38.77;94776.88;10409296;28;5029;-45
2022/12/23 16:31:40;;;;;;;;;;;;;;;17.36;38.81;94787.34;10394118;28;1972;-47
2022/12/23 16:36:50;;;;;;;;;;;;;;;17.32;38.88;94786.34;10391930;28;1962;-47
2022/12/23 16:41:51;;;;;;;;;;;;;;;17.33;38.77;94781.88;10399015;28;1752;-47
2022/12/23 16:46:51;;;;;;;;;;;;;;;17.37;38.69;94788.91;10401934;28;1960;-45
2022/12/23 16:51:52;;;;;;;;;;;;;;;17.32;38.86;94790.78;10398619;28;1937;-45
2022/12/23 16:56:52;;;;;;;;;;;;;;;17.28;39.01;94793.19;10395144;28;1965;-45
2022/12/23 17:01:52;;;;;;;;;;;;;;;17.33;38.77;94792.38;10394457;28;2044;-50
2022/12/23 17:06:53;;;;;;;;;;;;;;;17.28;38.84;94790.56;10404008;28;2180;-46
2022/12/23 17:11:53;;;;;;;;;;;;;;;17.30;38.82;94787.66;10392583;28;1973;-46
2022/12/23 17:16:54;;;;;;;;;;;;;;;17.33;38.80;94795.75;10404452;28;2108;-45
2022/12/23 17:21:54;;;;;;;;;;;;;;;17.32;38.74;94791.56;10407166;28;1948;-46
2022/12/23 17:26:58;;;;;;;;;;;;;;;17.26;38.95;94811.00;10410857;28;5025;-45
2022/12/23 17:31:58;;;;;;;;;;;;;;;17.28;39.04;94811.53;10405124;28;2113;-45
2022/12/23 17:37:00;;;;;;;;;;;;;;;17.28;39.04;94808.91;10410174;28;2030;-46
2022/12/23 17:42:00;;;;;;;;;;;;;;;17.30;38.82;94819.09;10409665;28;1977;-46
2022/12/23 17:47:00;;;;;;;;;;;;;;;17.28;38.98;94814.13;10404882;28;1941;-45
2022/12/23 17:52:00;;;;;;;;;;;;;;;17.28;39.03;94816.75;10404474;28;2036;-46
2022/12/23 17:57:01;;;;;;;;;;;;;;;17.34;38.85;94809.63;10409097;28;2034;-45
2022/12/23 18:02:01;;;;;;;;;;;;;;;17.29;39.01;94820.16;10395218;28;2057;-45
2022/12/23 18:07:01;;;;;;;;;;;;;;;17.29;38.89;94809.69;10416817;28;1969;-45
2022/12/23 18:12:02;;;;;;;;;;;;;;;17.31;38.90;94797.84;10408077;28;1827;-45
2022/12/23 18:17:02;;;;;;;;;;;;;;;17.33;38.83;94803.59;10414756;28;1902;-48
2022/12/23 18:22:02;;;;;;;;;;;;;;;17.29;38.96;94805.22;10399817;28;2049;-48
2022/12/23 18:27:05;;;;;;;;;;;;;;;17.26;39.13;94811.00;10406089;28;5002;-46
2022/12/23 18:32:05;;;;;;;;;;;;;;;17.22;39.06;94804.75;10417308;28;1993;-47
2022/12/23 18:37:07;;;;;;;;;;;;;;;17.25;39.08;94806.81;10409610;28;2084;-46
2022/12/23 18:42:11;;;;;;;;;;;;;;;17.30;38.74;94798.13;10396390;28;1883;-45
2022/12/23 18:47:11;;;;;;;;;;;;;;;17.24;39.16;94801.88;10397848;28;1923;-46
2022/12/23 18:52:11;;;;;;;;;;;;;;;17.24;39.16;94794.78;10401885;28;2010;-48
2022/12/23 18:57:12;;;;;;;;;;;;;;;17.25;39.11;94790.34;10406137;28;1969;-46
2022/12/23 19:02:14;;;;;;;;;;;;;;;17.26;39.08;94790.06;10401092;28;2101;-45
2022/12/23 19:07:15;;;;;;;;;;;;;;;17.24;39.12;94789.56;10402310;28;1945;-45
2022/12/23 19:12:15;;;;;;;;;;;;;;;17.26;39.07;94795.28;10396391;28;1946;-46
2022/12/23 19:17:16;;;;;;;;;;;;;;;17.18;39.27;94795.09;10399640;28;2037;-46
2022/12/23 19:22:16;;;;;;;;;;;;;;;17.27;39.08;94801.31;10399235;28;1958;-45
2022/12/23 19:27:16;;;;;;;;;;;;;;;17.21;39.24;94792.72;10408203;28;4987;-44
2022/12/23 19:32:17;;;;;;;;;;;;;;;17.21;39.28;94787.47;10404529;28;1969;-46
2022/12/23 19:37:17;;;;;;;;;;;;;;;17.21;39.28;94786.72;10404046;28;1965;-46
2022/12/23 19:42:17;;;;;;;;;;;;;;;17.30;38.97;94804.16;10415774;28;2017;-46
2022/12/23 19:47:17;;;;;;;;;;;;;;;17.26;39.11;94797.91;10400323;28;1973;-47
2022/12/23 19:52:24;;;;;;;;;;;;;;;17.24;39.21;94810.50;10404424;28;1776;-45
2022/12/23 19:57:25;;;;;;;;;;;;;;;17.27;39.19;94820.41;10402257;28;1836;-45
2022/12/23 20:02:25;;;;;;;;;;;;;;;17.17;39.29;94827.56;10408603;28;1966;-46
2022/12/23 20:07:26;;;;;;;;;;;;;;;17.26;39.22;94829.34;10404830;28;1970;-46
2022/12/23 20:12:26;;;;;;;;;;;;;;;17.27;39.13;94830.91;10394910;28;2140;-45
2022/12/23 20:17:27;;;;;;;;;;;;;;;17.30;39.08;94845.28;10401473;28;2041;-46
2022/12/23 20:22:27;;;;;;;;;;;;;;;17.30;39.13;94824.34;10397198;28;1984;-45
2022/12/23 20:27:28;;;;;;;;;;;;;;;17.27;39.11;94838.00;10403806;28;5038;-47
2022/12/23 20:32:28;;;;;;;;;;;;;;;17.23;39.20;94831.75;10393130;28;1956;-47
2022/12/23 20:37:28;;;;;;;;;;;;;;;17.19;39.29;94844.56;10390497;28;1973;-45
2022/12/23 20:42:28;;;;;;;;;;;;;;;17.26;39.25;94858.16;10402601;28;1952;-45
2022/12/23 20:47:29;;;;;;;;;;;;;;;17.21;39.23;94849.56;10394624;28;1934;-47
2022/12/23 20:52:29;;;;;;;;;;;;;;;17.22;39.22;94865.00;10395200;28;1957;-46
2022/12/23 20:57:30;;;;;;;;;;;;;;;17.23;39.28;94881.50;10399550;28;1946;-47
2022/12/23 21:02:30;;;;;;;;;;;;;;;17.26;39.25;94884.34;10394470;28;1918;-48
2022/12/23 21:07:31;;;;;;;;;;;;;;;17.23;39.29;94876.25;10398860;28;2084;-47
2022/12/23 21:12:32;;;;;;;;;;;;;;;17.24;39.35;94872.56;10397571;28;1978;-51
2022/12/23 21:17:32;;;;;;;;;;;;;;;17.14;39.49;94889.16;10399185;28;1835;-45
2022/12/23 21:22:32;;;;;;;;;;;;;;;17.25;39.25;94953.47;10394742;28;1917;-45
2022/12/23 21:27:33;;;;;;;;;;;;;;;17.25;39.20;94939.63;10394530;28;4975;-44
2022/12/23 21:32:33;;;;;;;;;;;;;;;17.22;39.23;94968.97;10401822;28;1972;-46
2022/12/23 21:37:33;;;;;;;;;;;;;;;17.25;39.28;94973.69;10384718;28;1955;-46
2022/12/23 21:42:34;;;;;;;;;;;;;;;17.14;39.43;94978.19;10396959;28;2032;-46
2022/12/23 21:47:34;;;;;;;;;;;;;;;17.18;39.35;94949.63;10397601;28;1906;-47
2022/12/23 21:52:34;;;;;;;;;;;;;;;17.16;39.42;94970.06;10399847;28;1910;-46
2022/12/23 21:57:34;;;;;;;;;;;;;;;17.16;39.43;94985.75;10387509;28;1976;-47
2022/12/23 22:02:35;;;;;;;;;;;;;;;17.18;39.40;94957.47;10384353;28;1937;-46
2022/12/23 22:07:35;;;;;;;;;;;;;;;17.27;39.28;94979.44;10398306;28;2165;-48
2022/12/23 22:12:36;;;;;;;;;;;;;;;17.23;39.34;94981.78;10405024;28;2081;-48
2022/12/23 22:17:36;;;;;;;;;;;;;;;17.17;39.40;94987.31;10404812;28;1923;-46
2022/12/23 22:22:37;;;;;;;;;;;;;;;17.13;39.51;94989.69;10403967;28;2180;-45
2022/12/23 22:27:37;;;;;;;;;;;;;;;17.24;39.29;94991.22;10395841;28;4864;-49
2022/12/23 22:32:38;;;;;;;;;;;;;;;17.22;39.28;94995.16;10402646;28;1926;-50
2022/12/23 22:37:38;;;;;;;;;;;;;;;17.19;39.39;94995.72;10406520;28;2065;-47
2022/12/23 22:42:39;;;;;;;;;;;;;;;17.12;39.44;95001.25;10411498;28;1870;-45
2022/12/23 22:47:39;;;;;;;;;;;;;;;17.25;39.33;95005.09;10403174;28;1946;-45
2022/12/23 22:52:39;;;;;;;;;;;;;;;17.29;39.21;95017.38;10408183;28;1902;-48
2022/12/23 22:57:42;;;;;;;;;;;;;;;17.18;39.46;95031.59;10394888;28;1934;-46
2022/12/23 23:02:42;;;;;;;;;;;;;;;17.23;39.36;95034.16;10407706;28;2274;-47
2022/12/23 23:07:43;;;;;;;;;;;;;;;17.18;39.47;95010.63;10402116;28;2088;-45
2022/12/23 23:12:44;;;;;;;;;;;;;;;17.19;39.32;95009.56;10393308;28;1972;-45
2022/12/23 23:17:44;;;;;;;;;;;;;;;17.18;39.47;95021.09;10400617;28;2085;-46
2022/12/23 23:22:45;;;;;;;;;;;;;;;17.23;39.35;95015.84;10395656;28;1898;-45
2022/12/23 23:27:47;;;;;;;;;;;;;;;17.18;39.43;95015.09;10404154;28;4998;-49
2022/12/23 23:32:47;;;;;;;;;;;;;;;17.16;39.49;95038.94;10396184;28;1994;-48
2022/12/23 23:37:48;;;;;;;;;;;;;;;17.17;39.49;95045.72;10404208;28;1966;-47
2022/12/23 23:42:48;;;;;;;;;;;;;;;17.18;39.46;95047.31;10402570;28;1910;-45
2022/12/23 23:47:48;;;;;;;;;;;;;;;17.21;39.60;95056.47;10395587;28;2273;-45
2022/12/23 23:52:49;;;;;;;;;;;;;;;17.15;39.50;95060.91;10395836;28;1866;-45
2022/12/23 23:57:49;;;;;;;;;;;;;;;17.16;39.59;95057.25;10399290;28;2071;-47
